地図

経路データ

SID SEASON NUMBER BASIN SUBBASIN NAME ISO_TIME NATURE LAT LON WMO_WIND WMO_PRES WMO_AGENCY TRACK_TYPE DIST2LAND LANDFALL IFLAG USA_AGENCY USA_ATCF_ID USA_LAT USA_LON USA_RECORD USA_STATUS USA_WIND USA_PRES USA_SSHS USA_R34_NE USA_R34_SE USA_R34_SW USA_R34_NW USA_R50_NE USA_R50_SE USA_R50_SW USA_R50_NW USA_R64_NE USA_R64_SE USA_R64_SW USA_R64_NW USA_POCI USA_ROCI USA_RMW USA_EYE TOKYO_LAT TOKYO_LON TOKYO_GRADE TOKYO_WIND TOKYO_PRES TOKYO_R50_DIR TOKYO_R50_LONG TOKYO_R50_SHORT TOKYO_R30_DIR TOKYO_R30_LONG TOKYO_R30_SHORT TOKYO_LAND CMA_LAT CMA_LON CMA_CAT CMA_WIND CMA_PRES HKO_LAT HKO_LON HKO_CAT HKO_WIND HKO_PRES NEWDELHI_LAT NEWDELHI_LON NEWDELHI_GRADE NEWDELHI_WIND NEWDELHI_PRES NEWDELHI_CI NEWDELHI_DP NEWDELHI_POCI REUNION_LAT REUNION_LON REUNION_TYPE REUNION_WIND REUNION_PRES REUNION_TNUM REUNION_CI REUNION_RMW REUNION_R34_NE REUNION_R34_SE REUNION_R34_SW REUNION_R34_NW REUNION_R50_NE REUNION_R50_SE REUNION_R50_SW REUNION_R50_NW REUNION_R64_NE REUNION_R64_SE REUNION_R64_SW REUNION_R64_NW BOM_LAT BOM_LON BOM_TYPE BOM_WIND BOM_PRES BOM_TNUM BOM_CI BOM_RMW BOM_R34_NE BOM_R34_SE BOM_R34_SW BOM_R34_NW BOM_R50_NE BOM_R50_SE BOM_R50_SW BOM_R50_NW BOM_R64_NE BOM_R64_SE BOM_R64_SW BOM_R64_NW BOM_ROCI BOM_POCI BOM_EYE BOM_POS_METHOD BOM_PRES_METHOD NADI_LAT NADI_LON NADI_CAT NADI_WIND NADI_PRES WELLINGTON_LAT WELLINGTON_LON WELLINGTON_WIND WELLINGTON_PRES DS824_LAT DS824_LON DS824_STAGE DS824_WIND DS824_PRES TD9636_LAT TD9636_LON TD9636_STAGE TD9636_WIND TD9636_PRES TD9635_LAT TD9635_LON TD9635_WIND TD9635_PRES TD9635_ROCI NEUMANN_LAT NEUMANN_LON NEUMANN_CLASS NEUMANN_WIND NEUMANN_PRES MLC_LAT MLC_LON MLC_CLASS MLC_WIND MLC_PRES USA_GUST BOM_GUST BOM_GUST_PER REUNION_GUST REUNION_GUST_PER USA_SEAHGT USA_SEARAD_NE USA_SEARAD_SE USA_SEARAD_SW USA_SEARAD_NW STORM_SPEED STORM_DIR
1960024S16123 1960 4 SI WA NOT_NAMED 1960-01-24 07:00:00 TS -16.0675 122.638 980 bom main 55 54 ______O_______ -1 -16.0000 122.700 980 20 238
1960024S16123 1960 4 SI WA NOT_NAMED 1960-01-24 09:00:00 TS -16.4139 122.053 main 70 77 ______P_______ -1 -16.4295 121.997 980 22 239
1960024S16123 1960 4 SI WA NOT_NAMED 1960-01-24 11:00:00 TS -16.8125 121.350 main 101 110 ______P_______ -1 -16.8249 121.320 980 23 240
1960024S16123 1960 4 SI WA NOT_NAMED 1960-01-24 12:00:00 TS -17.0000 121.000 980 bom main 131 139 ______O__O____ -1 -17.0000 121.000 980 -17.0000 121.000 TC 60 980 19 243
1960024S16123 1960 4 SI WA NOT_NAMED 1960-01-24 15:00:00 TS -17.3804 120.169 main 202 213 ______P__P____ -1 -17.4124 120.138 980 -17.2286 120.303 TC 60 980 16 247
1960024S16123 1960 4 SI WA NOT_NAMED 1960-01-24 18:00:00 TS -17.6392 119.439 main 267 257 ______P__P____ -1 -17.6840 119.403 980 -17.4549 119.603 TC 60 980 14 252
1960024S16123 1960 4 SI WA NOT_NAMED 1960-01-24 21:00:00 TS -17.8121 118.788 main 259 251 ______P__P____ -1 -17.8560 118.762 980 -17.6787 118.902 TC 60 980 12 256
1960024S16123 1960 4 SI WA NOT_NAMED 1960-01-24 23:00:00 TS -17.8971 118.386 main 256 256 ______P__P____ -1 -17.9352 118.372 980 -17.8265 118.434 TC 60 980 12 258
1960024S16123 1960 4 SI WA NOT_NAMED 1960-01-25 00:00:00 TS -17.9343 118.192 main 263 257 ______P__O____ -1 -17.9687 118.184 980 -17.9000 118.200 TC 60 980 12 258
1960024S16123 1960 4 SI WA NOT_NAMED 1960-01-25 01:00:00 TS -17.9795 117.990 980 bom main 261 260 ______O__P____ -1 -18.0000 118.000 980 -17.9308 118.034 TC 12 256
1960024S16123 1960 4 SI WA NOT_NAMED 1960-01-25 03:00:00 TS -18.0887 117.556 main 262 260 ______P__P____ -1 -18.0602 117.638 -17.9920 117.702 TC 12 256
1960024S16123 1960 4 SI WA NOT_NAMED 1960-01-25 06:00:00 TS -18.2274 116.931 main 268 257 ______P__P____ -1 -18.1458 117.108 -18.0827 117.203 TC 12 258
1960024S16123 1960 4 SI WA NOT_NAMED 1960-01-25 09:00:00 TS -18.3386 116.342 main 260 251 ______P__P____ -1 -18.2266 116.594 -18.1722 116.704 TC 11 259
1960024S16123 1960 4 SI WA NOT_NAMED 1960-01-25 11:00:00 TS -18.3991 115.972 main 256 259 ______P__P____ -1 -18.2780 116.258 -18.2311 116.371 TC 11 260
1960024S16123 1960 4 SI WA NOT_NAMED 1960-01-25 12:00:00 TS -18.4256 115.795 main 263 261 ______P__P____ -1 -18.3030 116.091 -18.2604 116.204 TC 10 262
1960024S16123 1960 4 SI WA NOT_NAMED 1960-01-25 15:00:00 TS -18.4917 115.295 main 276 276 ______P__P____ -1 -18.3759 115.599 -18.3473 115.704 TC 9 263
1960024S16123 1960 4 SI WA NOT_NAMED 1960-01-25 18:00:00 TS -18.5402 114.850 main 300 301 ______P__P____ -1 -18.4457 115.114 -18.4329 115.203 TC 8 264
1960024S16123 1960 4 SI WA NOT_NAMED 1960-01-25 21:00:00 TS -18.5744 114.465 main 312 318 ______P__P____ -1 -18.5131 114.635 -18.5171 114.701 TC 7 265
1960024S16123 1960 4 SI WA NOT_NAMED 1960-01-25 23:00:00 TS -18.5909 114.245 main 331 331 ______P__P____ -1 -18.5569 114.317 -18.5725 114.367 TC 6 266
1960024S16123 1960 4 SI WA NOT_NAMED 1960-01-26 00:00:00 TS -18.5977 114.146 main 337 337 ______P__O____ -1 -18.5785 114.159 -18.6000 114.200 TC 50 988 5 265
1960024S16123 1960 4 SI WA NOT_NAMED 1960-01-26 01:00:00 TS -18.6060 114.053 988 bom main 337 337 ______O_______ -1 -18.6000 114.000 988 TC 5 264
1960024S16123 1960 4 SI WA NOT_NAMED 1960-01-26 03:00:00 TS -18.6246 113.890 main 349 349 ______________ -1 TC 4 264
1960024S16123 1960 4 SI WA NOT_NAMED 1960-01-26 06:00:00 TS -18.6417 113.704 main 362 362 ______________ -1 TC 3 265
1960024S16123 1960 4 SI WA NOT_NAMED 1960-01-26 09:00:00 TS -18.6480 113.579 main 368 ______________ -1 TC 2 267

IBTrACS Databaseについて

本データベースは、米国NOAAが公開する1842年以降の世界の熱帯低気圧のベストトラックデータアーカイブInternational Best Track Archive for Climate Stewardship (IBTrACS)を、ウェブで閲覧しやすい形式に変換したものです。

最終更新日:2021-10-21